createdAt,value
2023-01-09T00:02:40.792Z,20.08
2023-01-09T00:05:42.623Z,18.02
2023-01-09T00:08:44.359Z,22.60
2023-01-09T00:11:46.078Z,24.73
2023-01-09T00:14:47.740Z,22.27
2023-01-09T00:17:49.996Z,24.48
2023-01-09T00:20:51.831Z,20.70
2023-01-09T00:23:54.414Z,20.52
2023-01-09T00:26:56.055Z,25.73
2023-01-09T00:29:57.780Z,19.42
2023-01-09T00:32:59.791Z,18.37
2023-01-09T00:36:02.393Z,22.37
2023-01-09T00:39:05.063Z,19.75
2023-01-09T00:42:10.174Z,20.23
2023-01-09T00:45:20.256Z,20.77
2023-01-09T00:48:27.138Z,25.15
2023-01-09T00:51:29.008Z,18.87
2023-01-09T00:54:31.988Z,23.00
2023-01-09T00:57:33.706Z,19.55
2023-01-09T01:00:35.414Z,21.80
2023-01-09T01:03:37.117Z,23.67
2023-01-09T01:06:57.565Z,25.42
2023-01-09T01:09:59.230Z,20.70
2023-01-09T01:13:00.929Z,25.02
2023-01-09T01:16:07.913Z,24.85
2023-01-09T01:19:09.568Z,23.52
2023-01-09T01:22:11.435Z,18.23
2023-01-09T01:25:17.002Z,21.92
2023-01-09T01:28:19.338Z,22.42
2023-01-09T01:31:21.059Z,22.35
2023-01-09T01:34:22.774Z,22.58
2023-01-09T01:37:24.755Z,20.73
2023-01-09T01:40:26.666Z,23.35
2023-01-09T01:43:29.386Z,24.40
2023-01-09T01:46:33.321Z,26.15
2023-01-09T01:49:35.019Z,21.67
2023-01-09T01:52:37.821Z,19.23
2023-01-09T01:55:45.023Z,19.50
2023-01-09T01:59:12.081Z,20.73
2023-01-09T02:02:13.815Z,21.62
2023-01-09T02:05:16.024Z,19.73
2023-01-09T02:08:18.332Z,20.42
2023-01-09T02:11:20.773Z,19.58
2023-01-09T02:14:27.922Z,18.33
2023-01-09T02:17:32.357Z,28.10
2023-01-09T02:20:52.318Z,20.10
2023-01-09T02:24:03.320Z,20.37
2023-01-09T02:27:45.260Z,19.52
2023-01-09T02:30:51.945Z,18.20
2023-01-09T02:34:12.026Z,23.20
2023-01-09T02:37:41.851Z,19.67
2023-01-09T02:41:24.044Z,17.77
2023-01-09T02:44:30.561Z,18.80
2023-01-09T02:47:37.069Z,20.20
2023-01-09T02:50:51.249Z,19.70
2023-01-09T02:54:05.063Z,17.55
2023-01-09T02:57:37.219Z,17.30
2023-01-09T03:00:47.920Z,20.48
2023-01-09T03:03:58.335Z,21.42
2023-01-09T03:07:13.872Z,23.87
2023-01-09T03:10:21.292Z,23.17
2023-01-09T03:13:26.599Z,18.27
2023-01-09T03:16:34.200Z,17.87
2023-01-09T03:19:37.419Z,27.25
2023-01-09T03:22:40.691Z,19.65
2023-01-09T03:25:42.401Z,22.50
2023-01-09T03:28:44.803Z,21.27
2023-01-09T03:31:46.491Z,23.70
2023-01-09T03:34:48.181Z,21.55
2023-01-09T03:37:51.724Z,19.52
2023-01-09T03:40:53.423Z,22.35
2023-01-09T03:43:55.129Z,21.10
2023-01-09T03:46:56.782Z,18.83
2023-01-09T03:49:58.471Z,16.70
2023-01-09T03:53:00.172Z,24.65
2023-01-09T03:56:01.885Z,17.75
2023-01-09T03:59:03.574Z,19.10
2023-01-09T04:02:05.388Z,18.12
2023-01-09T04:05:07.940Z,19.75
2023-01-09T04:08:09.677Z,17.52
2023-01-09T04:11:11.397Z,15.68
2023-01-09T04:14:13.077Z,24.08
2023-01-09T04:17:16.745Z,15.77
2023-01-09T04:20:18.941Z,19.15
2023-01-09T04:23:21.034Z,17.95
2023-01-09T04:26:22.730Z,16.77
2023-01-09T04:29:27.342Z,20.20
2023-01-09T04:32:29.066Z,16.50
2023-01-09T04:35:30.737Z,19.05
2023-01-09T04:38:32.546Z,18.52
2023-01-09T04:41:49.394Z,18.02
2023-01-09T04:44:54.234Z,21.30
2023-01-09T04:47:55.917Z,21.00
2023-01-09T04:50:57.571Z,21.60
2023-01-09T04:53:59.306Z,18.60
2023-01-09T04:57:01.033Z,15.90
2023-01-09T05:00:05.237Z,17.58
2023-01-09T05:03:06.902Z,16.48
2023-01-09T05:06:08.576Z,17.08
2023-01-09T05:09:10.258Z,15.68
2023-01-09T05:12:11.945Z,14.05
2023-01-09T05:15:13.664Z,14.57
2023-01-09T05:18:15.809Z,19.48
2023-01-09T05:21:17.475Z,19.90
2023-01-09T05:24:19.202Z,18.37
2023-01-09T05:27:20.880Z,17.05
2023-01-09T05:30:22.600Z,18.37
2023-01-09T05:33:24.361Z,14.77
2023-01-09T05:36:26.540Z,25.67
2023-01-09T05:39:28.275Z,20.70
2023-01-09T05:42:29.944Z,13.43
2023-01-09T05:45:31.715Z,24.77
2023-01-09T05:48:33.446Z,15.35
2023-01-09T05:51:35.217Z,25.37
2023-01-09T05:54:36.887Z,19.27
2023-01-09T05:57:38.565Z,23.27
2023-01-09T06:00:40.227Z,18.08
2023-01-09T06:03:42.466Z,23.33
2023-01-09T06:06:44.122Z,25.17
2023-01-09T06:09:45.763Z,17.92
2023-01-09T06:16:08.949Z,21.40
2023-01-09T06:19:10.815Z,15.60
2023-01-09T06:22:12.479Z,17.17
2023-01-09T06:25:14.147Z,16.25
2023-01-09T06:28:15.841Z,19.92
2023-01-09T06:31:17.716Z,17.25
2023-01-09T06:34:19.500Z,20.12
2023-01-09T06:37:21.164Z,15.90
2023-01-09T06:40:22.820Z,22.55
2023-01-09T06:43:24.503Z,18.65
2023-01-09T06:46:26.382Z,26.40
2023-01-09T06:49:28.030Z,15.10
2023-01-09T06:52:29.682Z,17.85
2023-01-09T06:55:31.391Z,19.62
2023-01-09T06:58:33.066Z,20.15
2023-01-09T07:01:34.883Z,18.92
2023-01-09T07:04:36.708Z,19.40
2023-01-09T07:07:41.467Z,15.13
2023-01-09T07:10:43.837Z,19.83
2023-01-09T07:13:45.500Z,14.57
2023-01-09T07:16:47.194Z,21.00
2023-01-09T07:19:48.863Z,17.98
2023-01-09T07:22:50.530Z,18.75
2023-01-09T07:25:52.545Z,24.08
2023-01-09T07:28:54.714Z,16.75
2023-01-09T07:31:56.894Z,21.80
2023-01-09T07:34:58.951Z,15.27
2023-01-09T07:38:00.631Z,19.50
2023-01-09T07:41:02.273Z,20.48
2023-01-09T07:44:04.075Z,22.20
2023-01-09T07:47:05.774Z,16.27
2023-01-09T07:50:08.951Z,18.45
2023-01-09T07:53:10.634Z,23.42
2023-01-09T07:56:12.373Z,16.92
2023-01-09T07:59:14.352Z,14.90
2023-01-09T08:02:18.191Z,14.30
2023-01-09T08:05:20.677Z,19.95
2023-01-09T08:08:23.284Z,15.23
2023-01-09T08:11:25.491Z,12.52
2023-01-09T08:14:27.220Z,72.18
2023-01-09T08:17:28.852Z,25.67
2023-01-09T08:20:30.597Z,24.80
2023-01-09T08:23:32.582Z,16.73
2023-01-09T08:26:34.239Z,21.40
2023-01-09T08:29:35.906Z,20.23
2023-01-09T08:32:37.889Z,14.18
2023-01-09T08:35:39.551Z,20.37
2023-01-09T08:38:41.212Z,25.27
2023-01-09T08:42:01.373Z,21.58
2023-01-09T08:45:21.663Z,18.00
2023-01-09T08:48:23.396Z,22.10
2023-01-09T08:51:25.051Z,25.17
2023-01-09T08:54:26.774Z,22.58
2023-01-09T08:57:28.484Z,19.17
2023-01-09T09:00:30.208Z,24.98
2023-01-09T09:03:31.887Z,21.83
2023-01-09T09:06:34.489Z,21.80
2023-01-09T09:09:36.135Z,24.17
2023-01-09T09:12:37.802Z,20.05
2023-01-09T09:15:39.510Z,19.27
2023-01-09T09:18:41.177Z,20.52
2023-01-09T09:21:42.873Z,17.62
2023-01-09T09:24:44.573Z,21.95
2023-01-09T09:27:46.595Z,24.00
2023-01-09T09:30:48.278Z,21.17
2023-01-09T09:33:50.054Z,25.80
2023-01-09T09:36:51.892Z,24.73
2023-01-09T09:39:53.690Z,19.33
2023-01-09T09:43:29.088Z,17.10
2023-01-09T09:46:41.917Z,20.90
2023-01-09T09:50:02.082Z,16.25
2023-01-09T09:53:11.673Z,17.55
2023-01-09T09:56:17.098Z,22.48
2023-01-09T09:59:26.731Z,19.73
2023-01-09T10:02:57.250Z,20.95
2023-01-09T10:06:00.556Z,30.65
2023-01-09T10:09:28.952Z,24.33
2023-01-09T10:12:32.112Z,28.25
2023-01-09T10:15:41.876Z,29.98
2023-01-09T10:18:49.275Z,28.15
2023-01-09T10:21:56.815Z,22.30
2023-01-09T10:28:40.541Z,27.20
2023-01-09T10:31:54.378Z,28.08
2023-01-09T10:35:14.143Z,28.58
2023-01-09T10:38:25.620Z,26.12
2023-01-09T10:42:06.443Z,23.85
2023-01-09T10:45:17.900Z,21.70
2023-01-09T10:48:44.196Z,22.92
2023-01-09T10:52:02.495Z,22.00
2023-01-09T10:55:17.155Z,20.05
2023-01-09T10:58:22.003Z,22.85
2023-01-09T11:01:31.032Z,22.55
2023-01-09T11:04:36.255Z,29.30
2023-01-09T11:07:42.123Z,25.20
2023-01-09T11:10:47.377Z,22.58
2023-01-09T11:14:04.736Z,31.02
2023-01-09T11:17:06.435Z,26.98
2023-01-09T11:20:23.409Z,29.40
2023-01-09T11:23:34.254Z,28.42
2023-01-09T11:26:35.897Z,28.52
2023-01-09T11:29:37.836Z,24.80
2023-01-09T11:32:39.691Z,31.80
2023-01-09T11:35:51.172Z,49.65
2023-01-09T11:38:55.807Z,30.67
2023-01-09T11:42:00.130Z,31.45
2023-01-09T11:45:01.865Z,26.87
2023-01-09T11:48:16.701Z,36.00
2023-01-09T11:51:27.034Z,29.60
2023-01-09T11:54:32.500Z,76.53
2023-01-09T11:57:34.682Z,50.65
2023-01-09T12:00:51.596Z,55.42
2023-01-09T12:03:53.184Z,56.65
2023-01-09T12:07:00.783Z,32.17
2023-01-09T12:13:15.790Z,52.67
2023-01-09T12:16:39.343Z,53.60
2023-01-09T12:19:59.516Z,35.92
2023-01-09T12:23:13.131Z,35.42
2023-01-09T12:26:36.546Z,37.42
2023-01-09T12:29:59.535Z,44.40
2023-01-09T12:33:12.093Z,34.60
2023-01-09T12:36:35.562Z,36.75
2023-01-09T12:40:04.840Z,32.17
2023-01-09T12:43:51.151Z,31.87
2023-01-09T12:47:15.894Z,26.80
2023-01-09T12:50:30.892Z,44.67
2023-01-09T12:53:47.833Z,63.95
2023-01-09T12:57:04.129Z,64.82
2023-01-09T13:00:30.109Z,86.87
2023-01-09T13:03:39.037Z,57.17
2023-01-09T13:06:49.211Z,34.67
2023-01-09T13:10:21.135Z,51.15
2023-01-09T13:13:39.562Z,41.63
2023-01-09T13:16:46.214Z,34.15
2023-01-09T13:19:48.289Z,33.40
2023-01-09T13:22:52.429Z,72.95
2023-01-09T13:25:58.238Z,77.05
2023-01-09T13:29:08.798Z,73.03
2023-01-09T13:32:29.139Z,54.58
2023-01-09T13:35:30.798Z,48.55
2023-01-09T13:38:35.234Z,32.22
2023-01-09T13:42:06.957Z,30.65
2023-01-09T13:45:29.633Z,32.60
2023-01-09T13:48:41.459Z,27.37
2023-01-09T13:51:43.037Z,23.70
2023-01-09T13:54:59.991Z,32.20
2023-01-09T13:58:04.546Z,27.83
2023-01-09T14:01:24.578Z,40.70
2023-01-09T14:04:41.443Z,44.33
2023-01-09T14:07:45.777Z,36.75
2023-01-09T14:10:53.733Z,139.93
2023-01-09T14:14:02.976Z,123.28
2023-01-09T14:17:17.869Z,88.55
2023-01-09T14:20:36.552Z,75.05
2023-01-09T14:24:04.413Z,100.22
2023-01-09T14:27:46.535Z,94.85
2023-01-09T14:30:53.873Z,119.60
2023-01-09T14:34:30.971Z,57.55
2023-01-09T14:37:37.119Z,72.60
2023-01-09T14:40:47.580Z,48.23
2023-01-09T14:44:06.459Z,38.70
2023-01-09T14:47:17.615Z,35.30
2023-01-09T14:50:28.005Z,29.95
2023-01-09T14:53:31.779Z,43.17
2023-01-09T14:56:34.943Z,54.28
2023-01-09T14:59:36.576Z,36.63
2023-01-09T15:02:39.840Z,46.22
2023-01-09T15:05:45.165Z,66.93
2023-01-09T15:08:51.225Z,51.30
2023-01-09T15:11:56.880Z,38.85
2023-01-09T15:15:01.392Z,36.97
2023-01-09T15:18:08.095Z,31.27
2023-01-09T15:21:24.900Z,29.30
2023-01-09T15:24:29.735Z,62.33
2023-01-09T15:27:31.427Z,30.62
2023-01-09T15:30:35.299Z,28.35
2023-01-09T15:33:39.800Z,42.13
2023-01-09T15:36:41.542Z,38.00
2023-01-09T15:39:43.239Z,33.15
2023-01-09T15:43:01.139Z,30.65
2023-01-09T15:46:03.313Z,27.15
2023-01-09T15:49:05.191Z,43.05
2023-01-09T15:52:11.966Z,44.58
2023-01-09T15:55:37.124Z,42.83
2023-01-09T15:58:41.234Z,31.42
2023-01-09T16:01:44.879Z,37.25
2023-01-09T16:04:47.576Z,33.42
2023-01-09T16:07:50.925Z,35.30
2023-01-09T16:10:56.307Z,31.90
2023-01-09T16:14:10.309Z,40.20
2023-01-09T16:17:17.828Z,42.53
2023-01-09T16:23:35.774Z,52.58
2023-01-09T16:26:37.576Z,40.70
2023-01-09T16:29:46.159Z,28.90
2023-01-09T16:32:51.501Z,25.55
2023-01-09T16:35:53.838Z,40.47
2023-01-09T16:38:57.204Z,118.60
2023-01-09T16:42:17.858Z,226.05
2023-01-09T16:45:20.909Z,248.77
2023-01-09T16:48:22.549Z,240.77
2023-01-09T16:51:25.747Z,168.68
2023-01-09T16:54:27.402Z,78.85
2023-01-09T16:57:30.410Z,35.72
2023-01-09T17:00:32.147Z,24.70
2023-01-09T17:03:33.918Z,19.37
2023-01-09T17:06:35.823Z,24.45
2023-01-09T17:09:39.004Z,22.95
2023-01-09T17:12:42.736Z,25.85
2023-01-09T17:15:45.665Z,31.45
2023-01-09T17:18:47.419Z,45.45
2023-01-09T17:21:49.205Z,28.25
2023-01-09T17:25:26.004Z,30.00
2023-01-09T17:28:35.829Z,39.33
2023-01-09T17:31:38.782Z,40.50
2023-01-09T17:34:40.571Z,33.53
2023-01-09T17:37:42.765Z,41.17
2023-01-09T17:40:45.393Z,107.10
2023-01-09T17:43:47.108Z,165.93
2023-01-09T17:46:48.809Z,94.28
2023-01-09T17:49:50.773Z,80.85
2023-01-09T17:52:52.407Z,74.07
2023-01-09T17:55:54.082Z,84.10
2023-01-09T17:58:56.247Z,35.88
2023-01-09T18:01:58.076Z,41.40
2023-01-09T18:05:00.229Z,33.28
2023-01-09T18:08:02.317Z,34.05
2023-01-09T18:11:12.115Z,33.17
2023-01-09T18:14:14.111Z,29.27
2023-01-09T18:17:16.043Z,26.02
2023-01-09T18:20:18.691Z,27.17
2023-01-09T18:23:21.588Z,28.38
2023-01-09T18:26:24.896Z,37.88
2023-01-09T18:29:26.675Z,39.83
2023-01-09T18:32:28.531Z,33.13
2023-01-09T18:35:32.881Z,39.97
2023-01-09T18:38:34.706Z,34.20
2023-01-09T18:41:36.820Z,33.22
2023-01-09T18:44:38.920Z,33.22
2023-01-09T18:47:40.741Z,32.20
2023-01-09T18:50:42.872Z,29.27
2023-01-09T18:53:45.332Z,43.42
2023-01-09T18:56:47.075Z,38.63
2023-01-09T18:59:49.296Z,35.20
2023-01-09T19:02:51.127Z,33.42
2023-01-09T19:05:54.238Z,32.30
2023-01-09T19:08:57.659Z,33.30
2023-01-09T19:12:00.693Z,39.13
2023-01-09T19:15:02.591Z,32.22
2023-01-09T19:18:04.652Z,25.80
2023-01-09T19:21:15.566Z,24.73
2023-01-09T19:24:20.366Z,29.35
2023-01-09T19:27:23.057Z,26.73
2023-01-09T19:30:24.855Z,31.02
2023-01-09T19:33:27.275Z,26.87
2023-01-09T19:36:29.198Z,28.58
2023-01-09T19:39:33.886Z,27.50
2023-01-09T19:42:35.669Z,27.65
2023-01-09T19:45:40.452Z,28.83
2023-01-09T19:48:45.377Z,29.60
2023-01-09T19:51:47.460Z,27.98
2023-01-09T19:54:49.403Z,33.13
2023-01-09T19:57:52.941Z,31.02
2023-01-09T20:00:55.290Z,28.87
2023-01-09T20:04:02.754Z,32.70
2023-01-09T20:07:05.198Z,30.95
2023-01-09T20:10:07.600Z,26.20
2023-01-09T20:13:09.792Z,28.45
2023-01-09T20:16:16.356Z,27.87
2023-01-09T20:19:18.737Z,27.65
2023-01-09T20:22:21.194Z,27.75
2023-01-09T20:25:23.596Z,26.67
2023-01-09T20:28:27.838Z,29.00
2023-01-09T20:31:33.780Z,25.52
2023-01-09T20:34:35.546Z,28.12
2023-01-09T20:37:40.122Z,28.38
2023-01-09T20:40:45.232Z,30.75
2023-01-09T20:43:47.226Z,27.30
2023-01-09T20:46:49.439Z,25.05
2023-01-09T20:49:51.580Z,25.35
2023-01-09T20:52:53.648Z,32.70
2023-01-09T20:56:03.982Z,27.52
2023-01-09T20:59:08.681Z,33.75
2023-01-09T21:02:14.646Z,31.75
2023-01-09T21:05:16.371Z,29.27
2023-01-09T21:08:18.100Z,33.00
2023-01-09T21:11:21.851Z,30.58
2023-01-09T21:14:23.488Z,33.40
2023-01-09T21:17:25.195Z,26.92
2023-01-09T21:20:26.866Z,28.33
2023-01-09T21:23:28.515Z,28.40
2023-01-09T21:26:30.776Z,34.00
2023-01-09T21:29:32.585Z,29.58
2023-01-09T21:32:34.382Z,32.13
2023-01-09T21:35:36.387Z,33.88
2023-01-09T21:38:38.671Z,30.90
2023-01-09T21:41:59.346Z,34.08
2023-01-09T21:45:19.750Z,29.58
2023-01-09T21:48:23.647Z,30.15
2023-01-09T21:51:25.637Z,33.00
2023-01-09T21:54:27.346Z,30.92
2023-01-09T21:57:28.972Z,31.17
2023-01-09T22:00:31.041Z,27.45
2023-01-09T22:03:32.737Z,34.05
2023-01-09T22:06:35.275Z,33.38
2023-01-09T22:09:37.599Z,29.75
2023-01-09T22:12:39.403Z,27.42
2023-01-09T22:15:41.564Z,28.67
2023-01-09T22:18:43.299Z,31.12
2023-01-09T22:21:45.781Z,32.40
2023-01-09T22:24:47.646Z,28.75
2023-01-09T22:27:49.364Z,38.00
2023-01-09T22:30:51.055Z,34.17
2023-01-09T22:33:54.277Z,26.20
2023-01-09T22:36:55.937Z,28.25
2023-01-09T22:39:57.650Z,33.35
2023-01-09T22:42:59.784Z,27.98
2023-01-09T22:46:03.079Z,29.05
2023-01-09T22:49:04.876Z,31.00
2023-01-09T22:52:06.540Z,23.20
2023-01-09T22:55:09.420Z,25.85
2023-01-09T22:58:11.089Z,22.73
2023-01-09T23:01:13.300Z,25.08
2023-01-09T23:04:16.033Z,26.12
2023-01-09T23:07:17.703Z,24.42
2023-01-09T23:10:19.448Z,21.27
2023-01-09T23:13:21.133Z,24.30
2023-01-09T23:16:22.835Z,21.85
2023-01-09T23:19:24.575Z,30.33
2023-01-09T23:22:26.291Z,21.75
2023-01-09T23:25:28.156Z,25.45
2023-01-09T23:28:30.611Z,25.42
2023-01-09T23:31:34.436Z,21.92
2023-01-09T23:34:36.078Z,23.00
2023-01-09T23:37:37.932Z,22.58
2023-01-09T23:40:44.172Z,20.62
2023-01-09T23:43:46.031Z,22.33
2023-01-09T23:46:47.754Z,17.95
2023-01-09T23:49:49.419Z,26.45
2023-01-09T23:52:51.087Z,23.05
2023-01-09T23:55:56.851Z,21.80
2023-01-09T23:58:58.562Z,21.02
